首页
METAR-TAF:

METAR-TAF

机场 :

第聶伯羅彼得羅夫斯克國際機場

第聂伯罗彼得罗夫斯克, 乌克兰

纬度: 48-21-26N, 经度: 035-06-02E, 海拔: 147米

当前天气观测

该预报发布于52分钟前的02:00 UTC
风速6节,风向
温度 16°C
湿度 88%
气压 1012 hPa
能见度10公里或以上
1500米以下无云,无积雨云

METAR: UKDD 120200Z 35003MPS CAVOK 16/14 Q1012 R26/090070 NOSIG

时间: 05:52 (02:52 UTC)

预报

该预报发布于3小时和48分钟前的23:04 UTC
预报有效从12日的 00点(UTC)到 12日的 24点(UTC)
风速8节,风向西转西北
能见度10公里或以上
多云层高于3000英尺
成为
从 12日的 06点(UTC)到 12日的 08点(UTC)
风速10节,风向北转西北,有时为19节阵风
多云层高于2500英尺, 积雨云.
短暂存在
从 12日的 08点(UTC)到 12日的 21点(UTC)
风速19节,风向多变,有时为29节阵风
能見度: 1100
多云层高于2000英尺, 积雨云.
雷暴, 雨, 飑

TAF: UKDD 112304Z 1200/1224 30004MPS 9999 BKN030 TX25/1212Z TN16/1202Z BECMG 1206/1208 34005G10MPS BKN025CB TEMPO 1208/1221 VRB10G15MPS 1100 TSRA SQ BKN020CB

超过4000个机场的气象观测和天气预报(METAR&TAF报告)。

可查询的气象台以黄色和红色小点在地图上表示。

将鼠标移到小点上方,可查看气象台名称。

然后点击查看天气观测和预报。

如需切换地图:点击带黑十字的绿色按钮放大地图;点击带横线的绿色按钮缩小地图;或者点击绿色箭头查看邻近地区的地图。


METAR-TAF: